Pagina principale
METAR-TAF:

METAR-TAF

Aeroporti :

Aeroporto di Cuneo-Levaldigi

Cuneo, Italia

latitudine: 44-32-47N, longitudine: 007-37-20E, altezza: 386 m

Osservazione

Il bollettino è stato emesso 19 minuti fa, alle 09:50 UTC
Vento 2 kt da direzioni variabili
Temperature 15°C
Umidità 77%
Pressione 1024 hPa
Visibilità 10 km o più

METAR: LIMZ 310950Z AUTO VRB02KT 9999 NCD 15/11 Q1024

Ora: 11:09 (10:09 UTC)

Previsione

Il bollettino è stato emesso 5 ore e 9 minuti fa, alle 05:00 UTC
Previsione valida dal 31 alle 06 UTC al 01 alle 06 UTC
Vento 4 kt da direzioni variabili
Visibilità 10 km o più
nessuna nube inferiore a 1500 m e nessun cumulonembo
Temporaneamente
dal 31 alle 22 UTC al 01 alle 06 UTC
Visibilità: 3000 m
foschia

TAF: LIMZ 310500Z 3106/0106 VRB04KT CAVOK TEMPO 3122/0106 3000 BR

Osservazioni e previsioni meteorologiche di più di 4000 aeroporti (messaggi METAR e TAF).

Le stazioni disponibili sono rappresentate dai dischi gialli e rossi sulla carta.

Puntare il mouse per vedere il nome della stazione.

Clicca sopra per visualizzare le osservazioni e previsioni meteorologiche.

Per cambiare la mappa : fare clic sui pulsanti verdi con una croce nera per ingrandire, il pulsante verde con un trattino per diminuire, o sulla freccia verde per le mappe adiacenti.


METAR-TAF: